createdAt,value
2022-10-04T00:01:04.306Z,84.03
2022-10-04T00:06:14.070Z,83.82
2022-10-04T00:11:20.668Z,84.05
2022-10-04T00:16:29.492Z,84.22
2022-10-04T00:22:08.230Z,84.47
2022-10-04T00:27:18.895Z,84.50
2022-10-04T00:32:30.730Z,84.66
2022-10-04T00:37:57.209Z,84.71
2022-10-04T00:43:01.089Z,84.95
2022-10-04T00:48:31.088Z,85.28
2022-10-04T00:53:46.651Z,85.46
2022-10-04T00:59:12.184Z,85.81
2022-10-04T01:04:28.739Z,85.77
2022-10-04T01:09:33.557Z,85.74
2022-10-04T01:14:43.064Z,85.93
2022-10-04T01:19:53.188Z,85.94
2022-10-04T01:24:57.149Z,86.16
2022-10-04T01:30:00.477Z,86.26
2022-10-04T01:35:03.421Z,86.30
2022-10-04T01:40:09.906Z,86.61
2022-10-04T01:45:18.266Z,86.42
2022-10-04T01:50:24.007Z,86.35
2022-10-04T01:55:30.186Z,86.23
2022-10-04T02:00:33.206Z,86.21
2022-10-04T02:05:37.670Z,86.24
2022-10-04T02:10:43.815Z,86.31
2022-10-04T02:15:47.923Z,86.50
2022-10-04T02:20:51.455Z,86.76
2022-10-04T02:25:55.541Z,86.88
2022-10-04T02:31:17.663Z,86.91
2022-10-04T02:36:24.450Z,87.01
2022-10-04T02:41:31.855Z,87.05
2022-10-04T02:46:37.565Z,87.26
2022-10-04T02:51:43.411Z,87.21
2022-10-04T02:56:52.395Z,87.36
2022-10-04T03:01:57.318Z,87.60
2022-10-04T03:07:01.447Z,87.68
2022-10-04T03:12:05.821Z,88.10
2022-10-04T03:17:08.793Z,88.19
2022-10-04T03:22:12.509Z,88.31
2022-10-04T03:27:18.778Z,88.37
2022-10-04T03:32:22.010Z,88.14
2022-10-04T03:37:25.482Z,88.24
2022-10-04T03:42:31.723Z,88.39
2022-10-04T03:47:37.579Z,88.52
2022-10-04T03:52:50.677Z,88.65
2022-10-04T03:57:54.894Z,88.69
2022-10-04T04:02:59.387Z,88.68
2022-10-04T04:08:07.393Z,88.52
2022-10-04T04:13:19.324Z,88.52
2022-10-04T04:18:24.157Z,88.33
2022-10-04T04:23:32.864Z,88.46
2022-10-04T04:28:41.477Z,87.90
2022-10-04T04:33:46.238Z,87.29
2022-10-04T04:39:06.589Z,86.89
2022-10-04T04:44:18.279Z,86.74
2022-10-04T04:49:22.520Z,87.05
2022-10-04T04:54:27.131Z,86.57
2022-10-04T04:59:31.200Z,86.69
2022-10-04T05:04:33.808Z,86.43
2022-10-04T05:09:38.427Z,86.47
2022-10-04T05:14:47.015Z,86.44
2022-10-04T05:19:50.640Z,86.18
2022-10-04T05:24:54.513Z,86.27
2022-10-04T05:30:04.653Z,86.15
2022-10-04T05:35:16.568Z,85.96
2022-10-04T05:40:33.253Z,85.63
2022-10-04T05:45:37.241Z,85.68
2022-10-04T05:50:41.759Z,85.79
2022-10-04T05:55:51.013Z,86.31
2022-10-04T06:01:10.454Z,86.62
2022-10-04T06:06:17.667Z,86.51
2022-10-04T06:11:30.152Z,86.41
2022-10-04T06:16:43.619Z,86.16
2022-10-04T06:22:01.826Z,85.82
2022-10-04T06:27:11.089Z,85.49
2022-10-04T06:32:40.305Z,85.39
2022-10-04T06:38:24.616Z,85.16
2022-10-04T06:43:40.195Z,85.06
2022-10-04T06:48:58.582Z,84.91
2022-10-04T06:54:07.075Z,84.94
2022-10-04T06:59:24.586Z,84.73
2022-10-04T07:05:03.247Z,84.64
2022-10-04T07:10:04.809Z,84.67
2022-10-04T07:15:15.577Z,84.54
2022-10-04T07:20:23.158Z,84.27
2022-10-04T07:25:30.496Z,84.11
2022-10-04T07:30:37.198Z,83.90
2022-10-04T07:35:48.797Z,83.75
2022-10-04T07:41:03.504Z,83.37
2022-10-04T07:46:14.031Z,83.08
2022-10-04T07:51:25.453Z,82.97
2022-10-04T07:56:33.998Z,82.82
2022-10-04T08:01:40.516Z,82.59
2022-10-04T08:06:56.388Z,82.33
2022-10-04T08:12:06.401Z,82.05
2022-10-04T08:17:18.293Z,81.94
2022-10-04T08:22:33.270Z,81.69
2022-10-04T08:28:06.782Z,81.32
2022-10-04T08:33:17.350Z,81.34
2022-10-04T08:38:37.237Z,81.29
2022-10-04T08:44:10.520Z,81.09
2022-10-04T08:49:48.506Z,80.88
2022-10-04T08:55:27.028Z,80.94
2022-10-04T09:00:39.828Z,80.93
2022-10-04T09:05:54.881Z,81.06
2022-10-04T09:11:10.391Z,80.90
2022-10-04T09:16:18.527Z,80.59
2022-10-04T09:21:28.766Z,80.38
2022-10-04T09:26:37.284Z,80.41
2022-10-04T09:31:51.396Z,80.41
2022-10-04T09:37:14.990Z,80.34
2022-10-04T09:42:49.809Z,79.96
2022-10-04T09:48:02.840Z,79.60
2022-10-04T09:53:21.089Z,79.30
2022-10-04T09:58:39.023Z,79.00
2022-10-04T10:04:03.868Z,78.44
2022-10-04T10:09:14.356Z,77.73
2022-10-04T10:14:54.068Z,77.63
2022-10-04T10:20:16.692Z,77.40
2022-10-04T10:25:28.999Z,76.92
2022-10-04T10:30:37.076Z,76.13
2022-10-04T10:35:51.059Z,76.29
2022-10-04T10:41:27.503Z,76.04
2022-10-04T10:46:44.013Z,75.92
2022-10-04T10:52:25.453Z,75.15
2022-10-04T10:57:49.176Z,75.08
2022-10-04T11:03:31.100Z,74.64
2022-10-04T11:09:03.156Z,72.89
2022-10-04T11:14:33.263Z,69.58
2022-10-04T11:19:56.185Z,56.53
2022-10-04T11:25:15.212Z,55.91
2022-10-04T11:30:25.166Z,53.33
2022-10-04T11:36:12.686Z,52.04
2022-10-04T11:41:19.541Z,52.42
2022-10-04T11:46:36.117Z,56.10
2022-10-04T11:52:09.267Z,54.60
2022-10-04T11:57:19.611Z,56.40
2022-10-04T12:02:58.478Z,52.06
2022-10-04T12:08:20.401Z,40.05
2022-10-04T12:13:37.906Z,33.73
2022-10-04T12:19:07.005Z,33.25
2022-10-04T12:24:21.387Z,36.88
2022-10-04T12:30:02.580Z,49.83
2022-10-04T12:35:19.383Z,54.01
2022-10-04T12:40:29.311Z,57.10
2022-10-04T12:45:43.557Z,57.71
2022-10-04T12:50:56.110Z,57.07
2022-10-04T12:56:13.149Z,55.14
2022-10-04T13:01:21.045Z,53.99
2022-10-04T13:06:31.471Z,55.74
2022-10-04T13:11:51.274Z,57.98
2022-10-04T13:22:55.450Z,56.96
2022-10-04T13:28:01.401Z,54.89
2022-10-04T13:33:12.174Z,54.89
2022-10-04T13:38:41.191Z,55.30
2022-10-04T13:44:07.868Z,55.94
2022-10-04T13:49:30.768Z,55.14
2022-10-04T13:54:56.388Z,54.60
2022-10-04T14:00:03.551Z,55.08
2022-10-04T14:05:42.723Z,55.92
2022-10-04T14:11:10.456Z,57.35
2022-10-04T14:16:34.459Z,57.95
2022-10-04T14:22:13.837Z,58.26
2022-10-04T14:27:37.366Z,58.93
2022-10-04T14:33:00.847Z,58.81
2022-10-04T14:38:43.378Z,58.70
2022-10-04T14:44:11.229Z,58.45
2022-10-04T14:49:19.553Z,58.29
2022-10-04T14:54:36.213Z,58.18
2022-10-04T15:00:06.678Z,56.87
2022-10-04T15:05:31.786Z,52.65
2022-10-04T15:10:38.342Z,47.56
2022-10-04T15:15:58.726Z,42.46
2022-10-04T15:21:03.434Z,37.54
2022-10-04T15:26:27.336Z,35.35
2022-10-04T15:31:35.497Z,35.32
2022-10-04T15:37:07.706Z,38.92
2022-10-04T15:42:15.051Z,41.16
2022-10-04T15:47:22.764Z,45.73
2022-10-04T15:52:49.875Z,51.70
2022-10-04T15:58:05.333Z,54.38
2022-10-04T16:03:20.894Z,55.56
2022-10-04T16:09:00.139Z,57.23
2022-10-04T16:14:15.658Z,57.79
2022-10-04T16:19:32.811Z,58.50
2022-10-04T16:24:48.891Z,59.36
2022-10-04T16:30:14.813Z,60.28
2022-10-04T16:35:26.232Z,61.05
2022-10-04T16:40:35.150Z,61.65
2022-10-04T16:45:43.914Z,62.23
2022-10-04T16:51:02.625Z,62.70
2022-10-04T16:56:11.979Z,63.01
2022-10-04T17:01:42.484Z,63.31
2022-10-04T17:06:51.562Z,63.87
2022-10-04T17:12:04.494Z,64.09
2022-10-04T17:17:12.350Z,64.47
2022-10-04T17:22:23.395Z,64.59
2022-10-04T17:27:56.263Z,64.99
2022-10-04T17:33:12.796Z,64.88
2022-10-04T17:38:21.422Z,64.94
2022-10-04T17:43:31.292Z,65.25
2022-10-04T17:48:57.879Z,65.45
2022-10-04T17:54:23.957Z,65.59
2022-10-04T17:59:31.230Z,65.43
2022-10-04T18:04:37.418Z,65.45
2022-10-04T18:09:44.766Z,65.61
2022-10-04T18:14:53.282Z,65.93
2022-10-04T18:20:02.699Z,66.16
2022-10-04T18:25:14.131Z,66.61
2022-10-04T18:30:19.209Z,66.94
2022-10-04T18:35:32.006Z,66.57
2022-10-04T18:40:41.798Z,66.51
2022-10-04T18:46:01.327Z,66.47
2022-10-04T18:51:22.551Z,66.44
2022-10-04T18:56:31.786Z,66.50
2022-10-04T19:02:01.176Z,66.89
2022-10-04T19:07:08.568Z,66.93
2022-10-04T19:12:16.201Z,67.21
2022-10-04T19:17:26.395Z,67.54
2022-10-04T19:22:38.579Z,67.46
2022-10-04T19:27:45.283Z,67.52
2022-10-04T19:33:08.947Z,67.55
2022-10-04T19:38:25.954Z,67.75
2022-10-04T19:43:35.200Z,67.93
2022-10-04T19:48:42.951Z,68.06
2022-10-04T19:53:46.082Z,67.97
2022-10-04T19:58:54.575Z,68.12
2022-10-04T20:04:11.796Z,68.41
2022-10-04T20:09:26.844Z,68.66
2022-10-04T20:14:57.435Z,68.88
2022-10-04T20:20:00.128Z,69.15
2022-10-04T20:25:02.894Z,69.22
2022-10-04T20:30:14.208Z,69.24
2022-10-04T20:36:14.111Z,69.44
2022-10-04T20:42:22.532Z,69.43
2022-10-04T20:47:46.278Z,69.61
2022-10-04T20:52:52.673Z,69.83
2022-10-04T20:57:56.832Z,69.80
2022-10-04T21:03:16.945Z,69.71
2022-10-04T21:08:23.986Z,69.88
2022-10-04T21:13:57.920Z,70.05
2022-10-04T21:19:48.779Z,70.13
2022-10-04T21:24:57.455Z,70.11
2022-10-04T21:30:01.000Z,70.46
2022-10-04T21:35:03.789Z,70.34
2022-10-04T21:40:09.334Z,70.65
2022-10-04T21:45:12.917Z,70.63
2022-10-04T21:50:15.731Z,70.76
2022-10-04T21:55:19.682Z,71.03
2022-10-04T22:00:23.103Z,70.94
2022-10-04T22:05:25.755Z,70.91
2022-10-04T22:10:29.708Z,71.06
2022-10-04T22:15:32.345Z,71.06
2022-10-04T22:20:35.051Z,71.14
2022-10-04T22:25:41.228Z,71.16
2022-10-04T22:30:45.220Z,71.03
2022-10-04T22:35:47.783Z,71.23
2022-10-04T22:40:51.963Z,71.39
2022-10-04T22:45:55.581Z,71.49
2022-10-04T22:50:58.223Z,71.29
2022-10-04T22:56:02.159Z,71.53
2022-10-04T23:01:09.633Z,71.63
2022-10-04T23:06:14.241Z,71.49
2022-10-04T23:11:18.313Z,71.58
2022-10-04T23:16:23.565Z,71.76
2022-10-04T23:21:27.409Z,71.81
2022-10-04T23:26:37.748Z,71.88
2022-10-04T23:31:40.571Z,71.90
2022-10-04T23:36:43.576Z,71.86
2022-10-04T23:41:47.730Z,71.92
2022-10-04T23:46:50.360Z,71.93
2022-10-04T23:51:59.654Z,71.95
2022-10-04T23:57:03.659Z,71.81
